createdAt,value
2018-05-16T00:00:28.209Z,18.03
2018-05-16T00:02:54.976Z,17.83
2018-05-16T00:05:21.635Z,17.79
2018-05-16T00:07:48.355Z,17.87
2018-05-16T00:10:15.240Z,17.87
2018-05-16T00:12:41.888Z,17.79
2018-05-16T00:15:08.364Z,17.77
2018-05-16T00:17:38.125Z,17.76
2018-05-16T00:20:04.695Z,17.72
2018-05-16T00:22:31.266Z,17.76
2018-05-16T00:24:57.864Z,17.69
2018-05-16T00:27:31.314Z,17.65
2018-05-16T00:29:58.039Z,17.62
2018-05-16T00:32:29.488Z,17.81
2018-05-16T00:34:56.201Z,17.71
2018-05-16T00:37:23.906Z,17.70
2018-05-16T00:39:50.533Z,17.80
2018-05-16T00:42:17.263Z,17.76
2018-05-16T00:44:43.798Z,17.88
2018-05-16T00:47:11.516Z,17.78
2018-05-16T00:49:38.161Z,17.86
2018-05-16T00:52:04.881Z,17.81
2018-05-16T00:54:31.441Z,17.81
2018-05-16T00:56:58.269Z,17.80
2018-05-16T00:59:24.886Z,17.84
2018-05-16T01:01:51.438Z,17.77
2018-05-16T01:04:18.113Z,17.78
2018-05-16T01:06:44.690Z,17.75
2018-05-16T01:09:11.291Z,17.75
2018-05-16T01:11:37.908Z,17.80
2018-05-16T01:14:04.627Z,17.83
2018-05-16T01:16:31.253Z,17.77
2018-05-16T01:18:57.787Z,17.78
2018-05-16T01:21:24.445Z,17.83
2018-05-16T01:23:51.109Z,17.82
2018-05-16T01:26:17.825Z,17.78
2018-05-16T01:28:47.780Z,17.90
2018-05-16T01:31:14.429Z,17.88
2018-05-16T01:33:41.002Z,17.80
2018-05-16T01:36:07.665Z,17.86
2018-05-16T01:38:38.125Z,17.78
2018-05-16T01:41:04.728Z,17.72
2018-05-16T01:43:31.555Z,17.79
2018-05-16T01:45:58.209Z,17.74
2018-05-16T01:48:28.038Z,17.77
2018-05-16T01:50:55.162Z,17.84
2018-05-16T01:53:21.738Z,17.43
2018-05-16T01:55:48.369Z,17.46
2018-05-16T01:58:18.294Z,17.57
2018-05-16T02:00:44.914Z,17.47
2018-05-16T02:03:11.549Z,17.39
2018-05-16T02:05:38.266Z,17.57
2018-05-16T02:08:06.086Z,17.43
2018-05-16T02:10:32.756Z,17.55
2018-05-16T02:12:59.368Z,17.45
2018-05-16T02:15:25.921Z,17.46
2018-05-16T02:17:53.527Z,17.49
2018-05-16T02:20:20.329Z,17.31
2018-05-16T02:22:46.928Z,17.40
2018-05-16T02:25:13.560Z,17.22
2018-05-16T02:27:43.985Z,17.36
2018-05-16T02:30:10.651Z,17.46
2018-05-16T02:32:37.259Z,17.45
2018-05-16T02:35:03.872Z,17.29
2018-05-16T02:37:31.855Z,17.16
2018-05-16T02:39:58.429Z,16.97
2018-05-16T02:42:25.534Z,16.88
2018-05-16T02:44:52.067Z,17.05
2018-05-16T02:47:22.902Z,17.34
2018-05-16T02:49:49.582Z,17.53
2018-05-16T02:52:16.228Z,17.49
2018-05-16T02:54:42.938Z,17.59
2018-05-16T02:57:16.795Z,17.63
2018-05-16T02:59:43.611Z,17.92
2018-05-16T03:02:10.262Z,18.18
2018-05-16T03:04:36.989Z,17.90
2018-05-16T03:07:04.582Z,18.17
2018-05-16T03:09:31.173Z,18.26
2018-05-16T03:11:57.925Z,18.32
2018-05-16T03:14:24.609Z,18.18
2018-05-16T03:16:54.742Z,18.19
2018-05-16T03:19:21.392Z,18.31
2018-05-16T03:21:48.169Z,18.25
2018-05-16T03:24:14.819Z,18.35
2018-05-16T03:26:47.811Z,18.40
2018-05-16T03:29:14.527Z,18.40
2018-05-16T03:31:44.911Z,18.39
2018-05-16T03:34:11.469Z,18.67
2018-05-16T03:36:50.932Z,18.70
2018-05-16T03:39:17.582Z,18.68
2018-05-16T03:41:44.175Z,18.79
2018-05-16T03:44:10.787Z,18.82
2018-05-16T03:46:41.230Z,18.73
2018-05-16T03:49:07.945Z,18.88
2018-05-16T03:51:34.637Z,19.09
2018-05-16T03:54:01.322Z,19.17
2018-05-16T03:56:34.418Z,18.83
2018-05-16T03:59:12.938Z,18.92
2018-05-16T04:01:51.542Z,19.12
2018-05-16T04:04:18.213Z,19.26
2018-05-16T04:06:55.581Z,19.16
2018-05-16T04:09:22.269Z,19.26
2018-05-16T04:11:48.882Z,19.38
2018-05-16T04:14:15.393Z,19.45
2018-05-16T04:16:43.029Z,19.66
2018-05-16T04:19:09.742Z,19.83
2018-05-16T04:21:36.358Z,19.85
2018-05-16T04:24:02.982Z,20.03
2018-05-16T04:26:30.842Z,20.18
2018-05-16T04:28:57.589Z,20.06
2018-05-16T04:31:24.254Z,20.21
2018-05-16T04:33:50.935Z,20.35
2018-05-16T04:36:17.869Z,20.52
2018-05-16T04:38:44.586Z,20.33
2018-05-16T04:41:11.271Z,20.30
2018-05-16T04:43:37.859Z,20.31
2018-05-16T04:46:05.454Z,20.52
2018-05-16T04:48:32.089Z,20.56
2018-05-16T04:50:58.837Z,20.68
2018-05-16T04:53:25.445Z,20.56
2018-05-16T04:55:52.185Z,20.83
2018-05-16T04:58:19.107Z,20.74
2018-05-16T05:00:45.815Z,20.43
2018-05-16T05:03:12.460Z,20.56
2018-05-16T05:05:39.152Z,20.52
2018-05-16T05:08:16.288Z,20.65
2018-05-16T05:10:42.889Z,20.84
2018-05-16T05:13:09.577Z,21.08
2018-05-16T05:15:36.279Z,21.48
2018-05-16T05:18:06.010Z,21.37
2018-05-16T05:20:32.721Z,21.38
2018-05-16T05:22:59.283Z,21.70
2018-05-16T05:25:25.936Z,21.79
2018-05-16T05:27:59.035Z,21.49
2018-05-16T05:30:25.870Z,21.35
2018-05-16T05:32:52.356Z,21.23
2018-05-16T05:35:19.014Z,21.55
2018-05-16T05:37:59.071Z,21.78
2018-05-16T05:40:25.814Z,21.76
2018-05-16T05:42:52.393Z,21.96
2018-05-16T05:45:19.104Z,21.94
2018-05-16T05:47:50.150Z,21.71
2018-05-16T05:50:16.739Z,21.65
2018-05-16T05:52:43.349Z,21.85
2018-05-16T05:55:09.925Z,21.89
2018-05-16T05:57:37.756Z,21.99
2018-05-16T06:00:04.422Z,22.31
2018-05-16T06:02:30.950Z,22.66
2018-05-16T06:04:57.614Z,22.49
2018-05-16T06:07:24.423Z,22.38
2018-05-16T06:09:50.950Z,22.33
2018-05-16T06:12:17.573Z,22.39
2018-05-16T06:14:44.195Z,22.18
2018-05-16T06:17:17.648Z,22.65
2018-05-16T06:19:44.409Z,22.72
2018-05-16T06:22:11.016Z,22.43
2018-05-16T06:24:37.644Z,22.75
2018-05-16T06:27:05.529Z,22.86
2018-05-16T06:29:32.139Z,22.81
2018-05-16T06:31:58.818Z,23.11
2018-05-16T06:34:25.483Z,23.27
2018-05-16T06:36:56.564Z,23.43
2018-05-16T06:39:23.202Z,23.28
2018-05-16T06:41:49.801Z,23.16
2018-05-16T06:47:05.601Z,23.68
2018-05-16T06:49:32.289Z,23.78
2018-05-16T06:51:59.008Z,23.72
2018-05-16T06:54:25.729Z,23.27
2018-05-16T06:56:57.729Z,22.99
2018-05-16T06:59:24.301Z,23.77
2018-05-16T07:01:51.050Z,24.41
2018-05-16T07:04:17.640Z,24.38
2018-05-16T07:06:44.361Z,24.02
2018-05-16T07:09:11.069Z,23.64
2018-05-16T07:11:37.746Z,23.16
2018-05-16T07:14:04.411Z,23.73
2018-05-16T07:16:31.240Z,23.88
2018-05-16T07:18:57.881Z,23.81
2018-05-16T07:21:24.530Z,23.67
2018-05-16T07:23:51.180Z,24.43
2018-05-16T07:26:18.020Z,24.31
2018-05-16T07:28:44.682Z,23.93
2018-05-16T07:34:08.557Z,24.43
2018-05-16T07:36:36.489Z,24.13
2018-05-16T07:39:03.078Z,24.21
2018-05-16T07:41:29.745Z,23.71
2018-05-16T07:43:56.374Z,23.62
2018-05-16T07:46:23.271Z,23.23
2018-05-16T07:48:49.981Z,23.93
2018-05-16T07:51:16.635Z,24.09
2018-05-16T07:53:43.289Z,24.21
2018-05-16T07:56:13.581Z,24.06
2018-05-16T07:58:40.226Z,24.33
2018-05-16T08:01:06.792Z,24.37
2018-05-16T08:03:33.449Z,24.65
2018-05-16T08:06:00.448Z,24.76
2018-05-16T08:08:27.322Z,24.17
2018-05-16T08:10:54.568Z,24.46
2018-05-16T08:13:21.212Z,25.13
2018-05-16T08:16:06.526Z,25.30
2018-05-16T08:18:40.034Z,25.02
2018-05-16T08:21:06.792Z,25.06
2018-05-16T08:23:33.451Z,26.01
2018-05-16T08:26:00.285Z,25.46
2018-05-16T08:28:26.979Z,26.26
2018-05-16T08:30:53.577Z,25.83
2018-05-16T08:33:20.237Z,26.20
2018-05-16T08:35:47.010Z,25.97
2018-05-16T08:38:13.650Z,26.32
2018-05-16T08:40:40.214Z,25.96
2018-05-16T08:43:06.884Z,26.29
2018-05-16T08:45:33.422Z,26.78
2018-05-16T08:48:00.090Z,26.86
2018-05-16T08:50:26.749Z,26.69
2018-05-16T08:52:53.355Z,26.34
2018-05-16T08:55:19.926Z,27.22
2018-05-16T08:57:46.609Z,27.25
2018-05-16T09:00:13.316Z,27.24
2018-05-16T09:02:39.893Z,26.68
2018-05-16T09:05:06.577Z,26.71
2018-05-16T09:07:33.362Z,27.16
2018-05-16T09:09:59.982Z,27.66
2018-05-16T09:12:26.525Z,28.05
2018-05-16T09:14:53.175Z,26.58
2018-05-16T09:17:21.041Z,27.14
2018-05-16T09:19:47.671Z,27.22
2018-05-16T09:22:14.286Z,27.24
2018-05-16T09:24:40.845Z,27.69
2018-05-16T09:27:10.801Z,28.16
2018-05-16T09:29:37.504Z,27.83
2018-05-16T09:32:04.190Z,28.30
2018-05-16T09:34:30.904Z,28.82
2018-05-16T09:36:58.520Z,28.30
2018-05-16T09:39:25.215Z,28.91
2018-05-16T09:41:51.888Z,28.37
2018-05-16T09:44:18.506Z,28.47
2018-05-16T09:46:46.388Z,28.66
2018-05-16T09:49:13.042Z,27.72
2018-05-16T09:51:39.657Z,28.40
2018-05-16T09:54:06.333Z,27.88
2018-05-16T09:56:33.146Z,27.50
2018-05-16T09:58:59.790Z,28.06
2018-05-16T10:01:26.496Z,28.14
2018-05-16T10:03:53.137Z,28.20
2018-05-16T10:06:20.889Z,30.00
2018-05-16T10:08:47.521Z,29.70
2018-05-16T10:11:14.167Z,30.57
2018-05-16T10:13:41.026Z,29.61
2018-05-16T10:16:08.982Z,30.21
2018-05-16T10:18:35.677Z,28.79
2018-05-16T10:21:02.343Z,27.08
2018-05-16T10:23:28.951Z,26.78
2018-05-16T10:25:59.078Z,26.98
2018-05-16T10:28:25.704Z,26.97
2018-05-16T10:30:52.350Z,27.88
2018-05-16T10:33:19.050Z,27.89
2018-05-16T10:35:50.326Z,29.80
2018-05-16T10:38:16.966Z,28.56
2018-05-16T10:40:43.532Z,29.54
2018-05-16T10:43:10.481Z,29.09
2018-05-16T10:45:40.302Z,27.15
2018-05-16T10:48:06.937Z,29.13
2018-05-16T10:50:33.540Z,28.26
2018-05-16T10:53:00.167Z,30.10
2018-05-16T10:55:30.561Z,30.07
2018-05-16T10:58:05.651Z,28.58
2018-05-16T11:00:32.459Z,29.18
2018-05-16T11:02:59.184Z,29.11
2018-05-16T11:05:25.954Z,30.24
2018-05-16T11:07:52.682Z,29.67
2018-05-16T11:10:19.378Z,28.59
2018-05-16T11:12:46.149Z,29.36
2018-05-16T11:15:12.867Z,28.13
2018-05-16T11:17:39.529Z,30.25
2018-05-16T11:20:06.183Z,30.20
2018-05-16T11:22:32.856Z,28.49
2018-05-16T11:24:59.554Z,30.37
2018-05-16T11:27:26.126Z,28.87
2018-05-16T11:29:52.804Z,28.38
2018-05-16T11:32:19.461Z,29.69
2018-05-16T11:34:46.082Z,28.73
2018-05-16T11:37:16.122Z,27.94
2018-05-16T11:39:42.799Z,27.95
2018-05-16T11:42:09.493Z,27.54
2018-05-16T11:44:36.137Z,28.00
2018-05-16T11:49:29.901Z,30.34
2018-05-16T11:51:56.597Z,30.38
2018-05-16T11:54:23.317Z,30.29
2018-05-16T11:56:54.482Z,28.15
2018-05-16T11:59:21.248Z,27.55
2018-05-16T12:01:47.823Z,28.87
2018-05-16T12:04:14.446Z,28.98
2018-05-16T12:06:42.244Z,29.51
2018-05-16T12:09:09.082Z,30.50
2018-05-16T12:11:35.570Z,31.07
2018-05-16T12:14:02.149Z,29.85
2018-05-16T12:16:30.080Z,29.48
2018-05-16T12:18:56.768Z,29.60
2018-05-16T12:21:23.430Z,30.35
2018-05-16T12:23:50.078Z,31.79
2018-05-16T12:26:19.668Z,30.21
2018-05-16T12:28:46.274Z,29.97
2018-05-16T12:31:12.981Z,30.60
2018-05-16T12:33:39.501Z,31.42
2018-05-16T12:36:09.766Z,31.26
2018-05-16T12:38:36.463Z,29.87
2018-05-16T12:41:03.178Z,31.29
2018-05-16T12:43:30.687Z,30.51
2018-05-16T12:45:57.472Z,30.16
2018-05-16T12:48:23.987Z,30.54
2018-05-16T12:50:50.689Z,32.10
2018-05-16T12:53:17.357Z,31.99
2018-05-16T12:55:45.005Z,30.80
2018-05-16T12:58:11.647Z,29.95
2018-05-16T13:00:38.370Z,30.27
2018-05-16T13:03:05.010Z,30.05
2018-05-16T13:05:35.437Z,31.41
2018-05-16T13:08:02.108Z,29.87
2018-05-16T13:10:28.780Z,30.62
2018-05-16T13:12:55.442Z,29.82
2018-05-16T13:15:23.122Z,30.20
2018-05-16T13:17:49.689Z,29.24
2018-05-16T13:20:16.305Z,30.55
2018-05-16T13:22:42.950Z,29.87
2018-05-16T13:25:10.585Z,29.07
2018-05-16T13:27:37.216Z,27.92
2018-05-16T13:30:03.757Z,27.86
2018-05-16T13:32:30.310Z,27.74
2018-05-16T13:34:57.902Z,27.15
2018-05-16T13:37:24.554Z,27.67
2018-05-16T13:39:51.194Z,28.27
2018-05-16T13:42:18.251Z,28.02
2018-05-16T13:44:45.881Z,27.79
2018-05-16T13:47:12.469Z,29.06
2018-05-16T13:49:39.169Z,29.00
2018-05-16T13:55:05.701Z,29.61
2018-05-16T13:57:32.461Z,29.09
2018-05-16T13:59:59.570Z,29.63
2018-05-16T14:02:26.226Z,29.83
2018-05-16T14:04:56.737Z,30.44
2018-05-16T14:07:23.419Z,30.14
2018-05-16T14:09:50.102Z,29.94
2018-05-16T14:12:16.543Z,29.50
2018-05-16T14:14:43.156Z,30.66
2018-05-16T14:17:09.755Z,30.61
2018-05-16T14:19:36.440Z,29.69
2018-05-16T14:22:03.062Z,30.26
2018-05-16T14:24:29.697Z,30.94
2018-05-16T14:26:56.529Z,30.06
2018-05-16T14:29:23.085Z,28.99
2018-05-16T14:31:49.717Z,29.96
2018-05-16T14:34:16.461Z,29.00
2018-05-16T14:36:46.871Z,28.38
2018-05-16T14:39:13.501Z,29.37
2018-05-16T14:41:40.133Z,29.84
2018-05-16T14:44:06.715Z,29.91
2018-05-16T14:46:36.958Z,29.64
2018-05-16T14:49:03.540Z,28.21
2018-05-16T14:51:30.261Z,29.13
2018-05-16T14:53:56.778Z,29.13
2018-05-16T14:56:36.735Z,28.85
2018-05-16T14:59:03.342Z,27.75
2018-05-16T15:01:29.906Z,27.47
2018-05-16T15:03:56.539Z,26.69
2018-05-16T15:06:28.905Z,26.60
2018-05-16T15:08:55.613Z,26.53
2018-05-16T15:11:22.245Z,25.95
2018-05-16T15:13:48.873Z,26.02
2018-05-16T15:16:20.009Z,25.88
2018-05-16T15:18:46.710Z,25.68
2018-05-16T15:21:13.437Z,25.28
2018-05-16T15:23:39.969Z,24.53
2018-05-16T15:26:11.398Z,24.41
2018-05-16T15:28:38.029Z,23.75
2018-05-16T15:31:04.749Z,23.69
2018-05-16T15:33:31.377Z,23.37
2018-05-16T15:35:57.990Z,23.23
2018-05-16T15:38:24.638Z,23.03
2018-05-16T15:40:51.221Z,23.27
2018-05-16T15:43:17.849Z,22.70
2018-05-16T15:45:48.347Z,22.27
2018-05-16T15:48:15.022Z,21.90
2018-05-16T15:50:41.763Z,22.40
2018-05-16T15:53:08.384Z,22.99
2018-05-16T15:55:42.394Z,22.72
2018-05-16T15:58:08.937Z,22.81
2018-05-16T16:00:35.492Z,22.77
2018-05-16T16:03:02.144Z,22.81
2018-05-16T16:05:37.607Z,22.59
2018-05-16T16:08:04.413Z,22.90
2018-05-16T16:10:31.117Z,23.20
2018-05-16T16:12:57.977Z,22.77
2018-05-16T16:15:28.737Z,22.27
2018-05-16T16:17:55.383Z,22.37
2018-05-16T16:20:21.898Z,22.01
2018-05-16T16:22:48.463Z,22.31
2018-05-16T16:25:16.178Z,22.37
2018-05-16T16:27:42.976Z,21.95
2018-05-16T16:30:09.483Z,22.24
2018-05-16T16:32:36.151Z,21.96
2018-05-16T16:35:03.791Z,21.73
2018-05-16T16:37:30.478Z,21.21
2018-05-16T16:39:57.129Z,21.63
2018-05-16T16:42:23.919Z,21.58
2018-05-16T16:44:54.543Z,21.44
2018-05-16T16:47:21.140Z,21.16
2018-05-16T16:49:47.850Z,21.16
2018-05-16T16:52:14.494Z,20.62
2018-05-16T16:54:43.166Z,21.22
2018-05-16T16:57:10.623Z,21.33
2018-05-16T16:59:37.194Z,21.50
2018-05-16T17:02:03.769Z,21.39
2018-05-16T17:04:31.860Z,21.26
2018-05-16T17:06:59.148Z,20.82
2018-05-16T17:09:25.863Z,21.02
2018-05-16T17:11:52.408Z,20.94
2018-05-16T17:14:19.078Z,21.22
2018-05-16T17:16:46.242Z,21.21
2018-05-16T17:19:12.884Z,21.29
2018-05-16T17:21:39.567Z,20.58
2018-05-16T17:24:06.241Z,20.85
2018-05-16T17:26:32.923Z,20.42
2018-05-16T17:28:59.583Z,20.52
2018-05-16T17:31:26.286Z,21.02
2018-05-16T17:33:52.982Z,21.31
2018-05-16T17:36:19.746Z,21.07
2018-05-16T17:38:46.478Z,20.55
2018-05-16T17:41:13.195Z,20.62
2018-05-16T17:43:39.952Z,20.55
2018-05-16T17:46:12.918Z,20.79
2018-05-16T17:48:40.068Z,20.49
2018-05-16T17:51:06.733Z,20.62
2018-05-16T17:53:33.389Z,21.49
2018-05-16T17:56:03.525Z,22.25
2018-05-16T17:58:30.488Z,22.06
2018-05-16T18:00:57.098Z,21.78
2018-05-16T18:03:23.718Z,21.96
2018-05-16T18:05:58.562Z,21.49
2018-05-16T18:08:25.204Z,21.66
2018-05-16T18:10:51.975Z,21.53
2018-05-16T18:17:00.279Z,21.58
2018-05-16T18:19:26.849Z,21.73
2018-05-16T18:21:53.444Z,21.31
2018-05-16T18:24:24.074Z,21.72
2018-05-16T18:26:51.102Z,21.67
2018-05-16T18:29:17.795Z,21.99
2018-05-16T18:31:44.311Z,21.09
2018-05-16T18:34:14.515Z,20.84
2018-05-16T18:36:41.406Z,20.65
2018-05-16T18:39:08.761Z,20.61
2018-05-16T18:41:36.830Z,20.61
2018-05-16T18:44:05.035Z,21.05
2018-05-16T18:46:31.754Z,20.77
2018-05-16T18:48:58.615Z,20.97
2018-05-16T18:51:25.275Z,20.94
2018-05-16T18:53:52.251Z,20.60
2018-05-16T18:56:19.494Z,20.44
2018-05-16T18:58:46.215Z,20.35
2018-05-16T19:01:14.170Z,20.32
2018-05-16T19:03:40.786Z,20.39
2018-05-16T19:06:08.606Z,20.36
2018-05-16T19:08:35.204Z,20.30
2018-05-16T19:11:01.955Z,20.29
2018-05-16T19:13:30.019Z,20.27
2018-05-16T19:15:57.079Z,20.31
2018-05-16T19:18:23.655Z,20.45
2018-05-16T19:20:50.314Z,20.17
2018-05-16T19:23:16.907Z,20.66
2018-05-16T19:25:47.044Z,20.72
2018-05-16T19:28:13.795Z,20.86
2018-05-16T19:30:41.738Z,20.56
2018-05-16T19:33:08.624Z,20.25
2018-05-16T19:35:39.270Z,20.11
2018-05-16T19:38:05.937Z,20.20
2018-05-16T19:40:32.769Z,20.21
2018-05-16T19:42:59.254Z,20.22
2018-05-16T19:45:32.507Z,20.22
2018-05-16T19:47:59.138Z,20.22
2018-05-16T19:50:25.790Z,20.34
2018-05-16T19:52:53.086Z,20.14
2018-05-16T19:55:24.582Z,20.04
2018-05-16T19:57:51.608Z,20.04
2018-05-16T20:00:19.067Z,20.04
2018-05-16T20:02:45.789Z,20.06
2018-05-16T20:05:18.814Z,20.10
2018-05-16T20:07:45.487Z,20.13
2018-05-16T20:10:13.128Z,20.15
2018-05-16T20:12:39.849Z,20.13
2018-05-16T20:15:10.406Z,20.14
2018-05-16T20:17:37.178Z,20.11
2018-05-16T20:20:05.932Z,20.09
2018-05-16T20:22:32.609Z,20.10
2018-05-16T20:25:09.226Z,20.09
2018-05-16T20:27:35.871Z,20.09
2018-05-16T20:30:02.416Z,20.13
2018-05-16T20:32:28.945Z,20.13
2018-05-16T20:34:58.982Z,20.12
2018-05-16T20:37:25.684Z,20.09
2018-05-16T20:39:52.297Z,20.08
2018-05-16T20:42:18.917Z,20.03
2018-05-16T20:44:46.807Z,20.09
2018-05-16T20:47:13.375Z,20.11
2018-05-16T20:49:39.980Z,20.05
2018-05-16T20:52:06.700Z,20.02
2018-05-16T20:54:36.640Z,20.07
2018-05-16T20:57:03.296Z,20.15
2018-05-16T20:59:30.011Z,20.14
2018-05-16T21:02:03.097Z,20.20
2018-05-16T21:04:30.795Z,20.13
2018-05-16T21:06:57.359Z,20.15
2018-05-16T21:09:23.975Z,20.10
2018-05-16T21:11:51.177Z,20.15
2018-05-16T21:14:21.989Z,20.19
2018-05-16T21:16:48.657Z,20.17
2018-05-16T21:19:15.226Z,20.24
2018-05-16T21:21:41.774Z,20.16
2018-05-16T21:24:12.076Z,20.16
2018-05-16T21:26:38.657Z,20.09
2018-05-16T21:29:05.335Z,20.06
2018-05-16T21:31:32.032Z,20.09
2018-05-16T21:34:02.677Z,20.11
2018-05-16T21:36:29.291Z,20.18
2018-05-16T21:38:56.301Z,20.12
2018-05-16T21:41:22.969Z,20.18
2018-05-16T21:43:54.790Z,20.18
2018-05-16T21:46:21.490Z,20.23
2018-05-16T21:48:48.194Z,20.19
2018-05-16T21:51:14.816Z,20.15
2018-05-16T21:53:45.160Z,20.20
2018-05-16T21:56:11.892Z,20.18
2018-05-16T21:58:38.585Z,20.12
2018-05-16T22:01:05.214Z,20.10
2018-05-16T22:03:31.799Z,20.09
2018-05-16T22:05:58.529Z,20.10
2018-05-16T22:08:25.133Z,20.07
2018-05-16T22:10:51.824Z,20.11
2018-05-16T22:13:18.575Z,20.08
2018-05-16T22:15:55.289Z,20.11
2018-05-16T22:18:21.841Z,20.18
2018-05-16T22:20:48.516Z,20.22
2018-05-16T22:23:15.138Z,20.17
2018-05-16T22:25:41.808Z,20.12
2018-05-16T22:28:08.520Z,20.01
2018-05-16T22:30:41.213Z,19.93
2018-05-16T22:33:14.063Z,19.87
2018-05-16T22:35:46.790Z,19.89
2018-05-16T22:38:19.461Z,19.86
2018-05-16T22:40:52.013Z,19.85
2018-05-16T22:43:18.777Z,19.80
2018-05-16T22:45:49.412Z,19.81
2018-05-16T22:48:16.391Z,19.85
2018-05-16T22:50:43.361Z,19.83
2018-05-16T22:53:10.010Z,19.76
2018-05-16T22:55:37.682Z,19.68
2018-05-16T22:58:04.316Z,19.76
2018-05-16T23:00:31.105Z,19.76
2018-05-16T23:02:57.760Z,19.69
2018-05-16T23:05:25.448Z,19.70
2018-05-16T23:07:52.075Z,19.64
2018-05-16T23:10:18.753Z,19.58
2018-05-16T23:12:45.466Z,19.56
2018-05-16T23:15:16.506Z,19.58
2018-05-16T23:17:43.134Z,19.37
2018-05-16T23:20:09.814Z,19.33
2018-05-16T23:22:37.083Z,19.36
2018-05-16T23:25:03.872Z,19.28
2018-05-16T23:27:30.529Z,19.20
2018-05-16T23:29:57.254Z,19.16
2018-05-16T23:32:23.973Z,19.11
2018-05-16T23:34:54.704Z,19.05
2018-05-16T23:37:21.345Z,19.10
2018-05-16T23:39:48.099Z,19.19
2018-05-16T23:42:14.805Z,19.07
2018-05-16T23:44:42.438Z,19.09
2018-05-16T23:47:09.037Z,19.06
2018-05-16T23:49:35.675Z,19.00
2018-05-16T23:52:02.303Z,19.04
2018-05-16T23:54:30.041Z,18.98
2018-05-16T23:56:56.793Z,18.89
2018-05-16T23:59:23.425Z,18.86
